sensor_id;sensor_type;location;lat;lon;timestamp;temperature;humidity
25012;DHT22;13027;49.358;11.256;2022-07-03T00:00:31;15.00;99.90
25012;DHT22;13027;49.358;11.256;2022-07-03T00:02:57;14.90;99.90
25012;DHT22;13027;49.358;11.256;2022-07-03T00:05:23;14.70;99.90
25012;DHT22;13027;49.358;11.256;2022-07-03T00:07:49;14.80;99.90
25012;DHT22;13027;49.358;11.256;2022-07-03T00:10:17;14.70;99.90
25012;DHT22;13027;49.358;11.256;2022-07-03T00:12:46;14.70;99.90
25012;DHT22;13027;49.358;11.256;2022-07-03T00:15:12;14.70;99.90
25012;DHT22;13027;49.358;11.256;2022-07-03T00:17:38;14.70;99.90
25012;DHT22;13027;49.358;11.256;2022-07-03T00:20:03;14.70;99.90
25012;DHT22;13027;49.358;11.256;2022-07-03T00:22:32;14.70;99.90
25012;DHT22;13027;49.358;11.256;2022-07-03T00:25:09;14.80;99.90
25012;DHT22;13027;49.358;11.256;2022-07-03T00:28:04;13.90;99.90
25012;DHT22;13027;49.358;11.256;2022-07-03T00:36:29;14.40;99.90
25012;DHT22;13027;49.358;11.256;2022-07-03T00:38:58;14.30;99.90
25012;DHT22;13027;49.358;11.256;2022-07-03T00:41:27;14.30;99.90
25012;DHT22;13027;49.358;11.256;2022-07-03T00:43:53;14.30;99.90
25012;DHT22;13027;49.358;11.256;2022-07-03T00:46:20;13.20;99.90
25012;DHT22;13027;49.358;11.256;2022-07-03T00:48:49;14.30;99.90
25012;DHT22;13027;49.358;11.256;2022-07-03T00:51:15;14.30;99.90
25012;DHT22;13027;49.358;11.256;2022-07-03T00:53:43;14.20;99.90
25012;DHT22;13027;49.358;11.256;2022-07-03T00:56:22;14.20;99.90
25012;DHT22;13027;49.358;11.256;2022-07-03T00:59:08;13.10;99.90
25012;DHT22;13027;49.358;11.256;2022-07-03T01:01:35;13.80;99.90
25012;DHT22;13027;49.358;11.256;2022-07-03T01:06:26;13.60;99.90
25012;DHT22;13027;49.358;11.256;2022-07-03T01:09:01;13.50;99.90
25012;DHT22;13027;49.358;11.256;2022-07-03T01:11:37;13.50;99.90
25012;DHT22;13027;49.358;11.256;2022-07-03T01:16:31;13.60;99.90
25012;DHT22;13027;49.358;11.256;2022-07-03T01:27:06;13.90;99.90
25012;DHT22;13027;49.358;11.256;2022-07-03T01:30:14;14.00;99.90
25012;DHT22;13027;49.358;11.256;2022-07-03T01:32:23;14.00;99.90
25012;DHT22;13027;49.358;11.256;2022-07-03T01:34:51;14.00;99.90
25012;DHT22;13027;49.358;11.256;2022-07-03T01:37:21;13.90;99.90
25012;DHT22;13027;49.358;11.256;2022-07-03T01:39:51;13.80;99.90
25012;DHT22;13027;49.358;11.256;2022-07-03T01:42:20;13.70;99.90
25012;DHT22;13027;49.358;11.256;2022-07-03T01:44:48;13.60;99.90
25012;DHT22;13027;49.358;11.256;2022-07-03T01:47:21;13.60;99.90
25012;DHT22;13027;49.358;11.256;2022-07-03T01:49:50;13.50;99.90
25012;DHT22;13027;49.358;11.256;2022-07-03T01:52:20;13.50;99.90
25012;DHT22;13027;49.358;11.256;2022-07-03T01:54:48;13.40;99.90
25012;DHT22;13027;49.358;11.256;2022-07-03T01:57:14;13.40;99.90
25012;DHT22;13027;49.358;11.256;2022-07-03T01:59:43;13.40;99.90
25012;DHT22;13027;49.358;11.256;2022-07-03T02:02:22;12.50;99.90
25012;DHT22;13027;49.358;11.256;2022-07-03T02:04:59;13.30;99.90
25012;DHT22;13027;49.358;11.256;2022-07-03T02:07:30;13.20;99.90
25012;DHT22;13027;49.358;11.256;2022-07-03T02:10:03;13.00;99.90
25012;DHT22;13027;49.358;11.256;2022-07-03T02:12:36;12.70;99.90
25012;DHT22;13027;49.358;11.256;2022-07-03T02:15:03;12.40;99.90
25012;DHT22;13027;49.358;11.256;2022-07-03T02:17:29;12.50;99.90
25012;DHT22;13027;49.358;11.256;2022-07-03T02:26:39;12.60;99.90
25012;DHT22;13027;49.358;11.256;2022-07-03T02:29:05;12.70;99.90
25012;DHT22;13027;49.358;11.256;2022-07-03T02:31:38;12.80;99.90
25012;DHT22;13027;49.358;11.256;2022-07-03T02:34:06;12.80;99.90
25012;DHT22;13027;49.358;11.256;2022-07-03T02:36:32;12.80;99.90
25012;DHT22;13027;49.358;11.256;2022-07-03T02:38:59;12.60;99.90
25012;DHT22;13027;49.358;11.256;2022-07-03T02:41:27;12.40;99.90
25012;DHT22;13027;49.358;11.256;2022-07-03T02:44:01;12.40;99.90
25012;DHT22;13027;49.358;11.256;2022-07-03T02:51:40;12.20;99.90
25012;DHT22;13027;49.358;11.256;2022-07-03T02:54:12;12.10;99.90
25012;DHT22;13027;49.358;11.256;2022-07-03T03:04:06;12.10;99.90
25012;DHT22;13027;49.358;11.256;2022-07-03T03:06:32;12.20;99.90
25012;DHT22;13027;49.358;11.256;2022-07-03T03:08:59;11.30;99.90
25012;DHT22;13027;49.358;11.256;2022-07-03T03:11:41;12.10;99.90
25012;DHT22;13027;49.358;11.256;2022-07-03T03:14:08;12.10;99.90
25012;DHT22;13027;49.358;11.256;2022-07-03T03:16:34;12.10;99.90
25012;DHT22;13027;49.358;11.256;2022-07-03T03:19:01;12.10;99.90
25012;DHT22;13027;49.358;11.256;2022-07-03T03:21:27;12.00;99.90
25012;DHT22;13027;49.358;11.256;2022-07-03T03:23:56;12.00;99.90
25012;DHT22;13027;49.358;11.256;2022-07-03T03:26:25;12.10;99.90
25012;DHT22;13027;49.358;11.256;2022-07-03T03:28:53;12.10;99.90
25012;DHT22;13027;49.358;11.256;2022-07-03T03:31:20;12.10;99.90
25012;DHT22;13027;49.358;11.256;2022-07-03T03:33:46;12.00;99.90
25012;DHT22;13027;49.358;11.256;2022-07-03T03:36:13;11.90;99.90
25012;DHT22;13027;49.358;11.256;2022-07-03T03:38:39;12.00;99.90
25012;DHT22;13027;49.358;11.256;2022-07-03T03:41:05;12.00;99.90
25012;DHT22;13027;49.358;11.256;2022-07-03T03:43:31;12.10;99.90
25012;DHT22;13027;49.358;11.256;2022-07-03T03:45:57;12.20;99.90
25012;DHT22;13027;49.358;11.256;2022-07-03T03:48:23;12.30;99.90
25012;DHT22;13027;49.358;11.256;2022-07-03T03:50:48;12.40;99.90
25012;DHT22;13027;49.358;11.256;2022-07-03T03:53:14;12.40;99.90
25012;DHT22;13027;49.358;11.256;2022-07-03T03:58:26;12.50;99.90
25012;DHT22;13027;49.358;11.256;2022-07-03T04:00:52;12.50;99.90
25012;DHT22;13027;49.358;11.256;2022-07-03T04:03:22;12.70;99.90
25012;DHT22;13027;49.358;11.256;2022-07-03T04:05:48;12.80;99.90
25012;DHT22;13027;49.358;11.256;2022-07-03T04:08:16;13.00;99.90
25012;DHT22;13027;49.358;11.256;2022-07-03T04:10:42;13.90;99.90
25012;DHT22;13027;49.358;11.256;2022-07-03T04:13:08;12.90;99.90
25012;DHT22;13027;49.358;11.256;2022-07-03T04:15:34;12.90;99.90
25012;DHT22;13027;49.358;11.256;2022-07-03T04:17:59;13.00;99.90
25012;DHT22;13027;49.358;11.256;2022-07-03T04:20:25;12.90;99.90
25012;DHT22;13027;49.358;11.256;2022-07-03T04:22:50;13.10;99.90
25012;DHT22;13027;49.358;11.256;2022-07-03T04:25:17;12.70;99.90
25012;DHT22;13027;49.358;11.256;2022-07-03T04:27:45;13.00;99.90
25012;DHT22;13027;49.358;11.256;2022-07-03T04:30:14;13.20;99.90
25012;DHT22;13027;49.358;11.256;2022-07-03T04:32:40;12.20;99.90
25012;DHT22;13027;49.358;11.256;2022-07-03T04:35:20;13.40;99.90
25012;DHT22;13027;49.358;11.256;2022-07-03T04:37:48;13.50;99.90
25012;DHT22;13027;49.358;11.256;2022-07-03T04:40:14;13.60;99.90
25012;DHT22;13027;49.358;11.256;2022-07-03T04:42:40;13.70;99.90
25012;DHT22;13027;49.358;11.256;2022-07-03T04:45:06;13.90;99.90
25012;DHT22;13027;49.358;11.256;2022-07-03T04:47:32;14.10;99.90
25012;DHT22;13027;49.358;11.256;2022-07-03T04:50:00;14.20;99.90
25012;DHT22;13027;49.358;11.256;2022-07-03T04:52:26;14.30;99.90
25012;DHT22;13027;49.358;11.256;2022-07-03T04:54:52;14.60;99.90
25012;DHT22;13027;49.358;11.256;2022-07-03T04:57:17;14.70;99.90
25012;DHT22;13027;49.358;11.256;2022-07-03T04:59:43;14.80;99.90
25012;DHT22;13027;49.358;11.256;2022-07-03T05:02:09;15.10;99.90
25012;DHT22;13027;49.358;11.256;2022-07-03T05:04:42;15.30;99.90
25012;DHT22;13027;49.358;11.256;2022-07-03T05:07:10;15.50;99.90
25012;DHT22;13027;49.358;11.256;2022-07-03T05:09:39;15.80;99.90
25012;DHT22;13027;49.358;11.256;2022-07-03T05:12:10;15.90;99.90
25012;DHT22;13027;49.358;11.256;2022-07-03T05:14:38;16.20;99.90
25012;DHT22;13027;49.358;11.256;2022-07-03T05:17:16;16.40;99.90
25012;DHT22;13027;49.358;11.256;2022-07-03T05:19:42;16.70;99.90
25012;DHT22;13027;49.358;11.256;2022-07-03T05:22:07;17.00;99.90
25012;DHT22;13027;49.358;11.256;2022-07-03T05:24:36;17.10;99.90
25012;DHT22;13027;49.358;11.256;2022-07-03T05:27:05;17.60;99.90
25012;DHT22;13027;49.358;11.256;2022-07-03T05:29:34;17.70;99.90
25012;DHT22;13027;49.358;11.256;2022-07-03T05:32:02;17.90;99.90
25012;DHT22;13027;49.358;11.256;2022-07-03T05:34:28;18.10;99.90
25012;DHT22;13027;49.358;11.256;2022-07-03T05:36:53;18.30;99.90
25012;DHT22;13027;49.358;11.256;2022-07-03T05:39:19;18.40;99.90
25012;DHT22;13027;49.358;11.256;2022-07-03T05:41:57;18.40;99.90
25012;DHT22;13027;49.358;11.256;2022-07-03T05:44:22;18.60;99.90
25012;DHT22;13027;49.358;11.256;2022-07-03T05:46:50;18.60;99.90
25012;DHT22;13027;49.358;11.256;2022-07-03T05:49:16;18.80;99.90
25012;DHT22;13027;49.358;11.256;2022-07-03T05:54:42;19.30;99.90
25012;DHT22;13027;49.358;11.256;2022-07-03T06:00:14;19.20;99.90
25012;DHT22;13027;49.358;11.256;2022-07-03T06:02:55;19.30;99.90
25012;DHT22;13027;49.358;11.256;2022-07-03T06:05:24;20.30;99.90
25012;DHT22;13027;49.358;11.256;2022-07-03T06:07:55;20.60;99.90
25012;DHT22;13027;49.358;11.256;2022-07-03T06:10:21;20.10;99.90
25012;DHT22;13027;49.358;11.256;2022-07-03T06:12:49;20.80;99.90
25012;DHT22;13027;49.358;11.256;2022-07-03T06:18:03;20.90;99.90
25012;DHT22;13027;49.358;11.256;2022-07-03T06:20:29;20.90;99.90
25012;DHT22;13027;49.358;11.256;2022-07-03T06:25:54;21.10;99.90
25012;DHT22;13027;49.358;11.256;2022-07-03T06:28:22;21.30;99.90
25012;DHT22;13027;49.358;11.256;2022-07-03T06:30:54;20.60;99.90
25012;DHT22;13027;49.358;11.256;2022-07-03T06:33:23;21.40;99.90
25012;DHT22;13027;49.358;11.256;2022-07-03T06:38:25;21.50;99.90
25012;DHT22;13027;49.358;11.256;2022-07-03T06:40:56;20.70;99.90
25012;DHT22;13027;49.358;11.256;2022-07-03T06:43:21;21.70;99.90
25012;DHT22;13027;49.358;11.256;2022-07-03T06:45:52;21.90;99.90
25012;DHT22;13027;49.358;11.256;2022-07-03T06:48:21;22.00;99.90
25012;DHT22;13027;49.358;11.256;2022-07-03T06:50:53;22.30;99.90
25012;DHT22;13027;49.358;11.256;2022-07-03T06:53:20;22.50;99.90
25012;DHT22;13027;49.358;11.256;2022-07-03T06:55:45;22.40;99.90
25012;DHT22;13027;49.358;11.256;2022-07-03T06:58:14;22.40;99.90
25012;DHT22;13027;49.358;11.256;2022-07-03T07:01:01;22.60;99.90
25012;DHT22;13027;49.358;11.256;2022-07-03T07:03:33;21.80;99.90
25012;DHT22;13027;49.358;11.256;2022-07-03T07:05:59;23.00;99.90
25012;DHT22;13027;49.358;11.256;2022-07-03T07:08:27;23.40;99.90
25012;DHT22;13027;49.358;11.256;2022-07-03T07:10:52;23.70;99.90
25012;DHT22;13027;49.358;11.256;2022-07-03T07:13:18;24.20;99.90
25012;DHT22;13027;49.358;11.256;2022-07-03T07:18:43;25.90;99.90
25012;DHT22;13027;49.358;11.256;2022-07-03T07:21:09;27.20;99.90
25012;DHT22;13027;49.358;11.256;2022-07-03T07:23:38;26.60;99.90
25012;DHT22;13027;49.358;11.256;2022-07-03T07:28:48;25.70;99.90
25012;DHT22;13027;49.358;11.256;2022-07-03T07:31:14;25.70;99.90
25012;DHT22;13027;49.358;11.256;2022-07-03T07:33:43;25.30;99.90
25012;DHT22;13027;49.358;11.256;2022-07-03T07:36:09;25.40;99.90
25012;DHT22;13027;49.358;11.256;2022-07-03T07:38:34;25.50;99.90
25012;DHT22;13027;49.358;11.256;2022-07-03T07:41:00;25.10;99.90
25012;DHT22;13027;49.358;11.256;2022-07-03T07:43:28;24.90;99.90
25012;DHT22;13027;49.358;11.256;2022-07-03T07:45:54;24.90;99.90
25012;DHT22;13027;49.358;11.256;2022-07-03T07:48:19;25.00;99.90
25012;DHT22;13027;49.358;11.256;2022-07-03T07:50:48;25.00;99.90
25012;DHT22;13027;49.358;11.256;2022-07-03T07:53:18;25.00;99.90
25012;DHT22;13027;49.358;11.256;2022-07-03T07:55:44;25.00;99.90
25012;DHT22;13027;49.358;11.256;2022-07-03T07:58:09;24.90;99.90
25012;DHT22;13027;49.358;11.256;2022-07-03T08:00:58;24.90;99.90
25012;DHT22;13027;49.358;11.256;2022-07-03T08:03:42;25.00;99.90
25012;DHT22;13027;49.358;11.256;2022-07-03T08:06:26;25.00;99.90
25012;DHT22;13027;49.358;11.256;2022-07-03T08:08:52;25.20;99.90
25012;DHT22;13027;49.358;11.256;2022-07-03T08:11:17;25.30;99.90
25012;DHT22;13027;49.358;11.256;2022-07-03T08:13:43;25.20;99.90
25012;DHT22;13027;49.358;11.256;2022-07-03T08:16:11;25.40;99.90
25012;DHT22;13027;49.358;11.256;2022-07-03T08:18:37;25.30;99.90
25012;DHT22;13027;49.358;11.256;2022-07-03T08:21:02;25.20;99.90
25012;DHT22;13027;49.358;11.256;2022-07-03T08:23:28;25.20;99.90
25012;DHT22;13027;49.358;11.256;2022-07-03T08:25:54;25.30;99.90
25012;DHT22;13027;49.358;11.256;2022-07-03T08:28:26;25.40;99.90
25012;DHT22;13027;49.358;11.256;2022-07-03T08:31:03;25.50;99.90
25012;DHT22;13027;49.358;11.256;2022-07-03T08:33:29;25.50;99.90
25012;DHT22;13027;49.358;11.256;2022-07-03T08:35:54;25.40;99.90
25012;DHT22;13027;49.358;11.256;2022-07-03T08:38:24;25.50;99.90
25012;DHT22;13027;49.358;11.256;2022-07-03T08:40:52;25.80;99.90
25012;DHT22;13027;49.358;11.256;2022-07-03T08:43:21;25.80;99.90
25012;DHT22;13027;49.358;11.256;2022-07-03T08:45:50;25.90;99.90
25012;DHT22;13027;49.358;11.256;2022-07-03T08:48:24;26.10;99.90
25012;DHT22;13027;49.358;11.256;2022-07-03T08:50:50;25.80;99.90
25012;DHT22;13027;49.358;11.256;2022-07-03T08:53:17;25.90;99.90
25012;DHT22;13027;49.358;11.256;2022-07-03T08:55:43;26.00;99.90
25012;DHT22;13027;49.358;11.256;2022-07-03T08:58:09;26.10;99.90
25012;DHT22;13027;49.358;11.256;2022-07-03T09:00:44;26.20;99.90
25012;DHT22;13027;49.358;11.256;2022-07-03T09:03:19;26.40;99.90
25012;DHT22;13027;49.358;11.256;2022-07-03T09:05:46;26.40;99.90
25012;DHT22;13027;49.358;11.256;2022-07-03T09:08:14;26.40;99.90
25012;DHT22;13027;49.358;11.256;2022-07-03T09:11:12;26.50;99.90
25012;DHT22;13027;49.358;11.256;2022-07-03T09:13:41;26.60;99.90
25012;DHT22;13027;49.358;11.256;2022-07-03T09:16:19;26.60;99.90
25012;DHT22;13027;49.358;11.256;2022-07-03T09:19:08;26.60;99.90
25012;DHT22;13027;49.358;11.256;2022-07-03T09:21:46;27.20;99.90
25012;DHT22;13027;49.358;11.256;2022-07-03T09:24:14;25.70;99.90
25012;DHT22;13027;49.358;11.256;2022-07-03T09:26:49;28.20;99.90
25012;DHT22;13027;49.358;11.256;2022-07-03T09:29:18;29.50;99.90
25012;DHT22;13027;49.358;11.256;2022-07-03T09:31:53;28.00;99.90
25012;DHT22;13027;49.358;11.256;2022-07-03T09:34:19;28.00;99.90
25012;DHT22;13027;49.358;11.256;2022-07-03T09:36:50;28.10;99.90
25012;DHT22;13027;49.358;11.256;2022-07-03T09:39:20;28.20;99.90
25012;DHT22;13027;49.358;11.256;2022-07-03T09:42:03;28.10;99.90
25012;DHT22;13027;49.358;11.256;2022-07-03T09:47:44;27.60;99.90
25012;DHT22;13027;49.358;11.256;2022-07-03T09:50:29;26.30;99.90
25012;DHT22;13027;49.358;11.256;2022-07-03T09:53:08;27.20;99.90
25012;DHT22;13027;49.358;11.256;2022-07-03T10:01:29;27.10;99.90
25012;DHT22;13027;49.358;11.256;2022-07-03T10:09:45;27.40;99.90
25012;DHT22;13027;49.358;11.256;2022-07-03T10:17:59;27.70;99.20
25012;DHT22;13027;49.358;11.256;2022-07-03T10:20:29;27.70;98.80
25012;DHT22;13027;49.358;11.256;2022-07-03T10:22:55;27.80;99.50
25012;DHT22;13027;49.358;11.256;2022-07-03T10:30:19;27.80;98.60
25012;DHT22;13027;49.358;11.256;2022-07-03T10:32:49;27.70;99.20
25012;DHT22;13027;49.358;11.256;2022-07-03T10:43:35;27.50;99.30
25012;DHT22;13027;49.358;11.256;2022-07-03T10:52:32;28.20;95.10
25012;DHT22;13027;49.358;11.256;2022-07-03T10:55:05;28.50;95.00
25012;DHT22;13027;49.358;11.256;2022-07-03T11:00:22;28.10;94.50
25012;DHT22;13027;49.358;11.256;2022-07-03T11:02:51;27.80;95.00
25012;DHT22;13027;49.358;11.256;2022-07-03T11:05:26;27.80;93.70
25012;DHT22;13027;49.358;11.256;2022-07-03T11:08:32;28.10;92.80
25012;DHT22;13027;49.358;11.256;2022-07-03T11:11:47;28.40;90.60
25012;DHT22;13027;49.358;11.256;2022-07-03T11:14:28;27.80;90.30
25012;DHT22;13027;49.358;11.256;2022-07-03T11:19:38;28.10;91.70
25012;DHT22;13027;49.358;11.256;2022-07-03T11:22:05;28.20;92.50
25012;DHT22;13027;49.358;11.256;2022-07-03T11:24:39;28.50;90.60
25012;DHT22;13027;49.358;11.256;2022-07-03T11:27:18;28.60;91.20
25012;DHT22;13027;49.358;11.256;2022-07-03T11:29:55;28.30;90.80
25012;DHT22;13027;49.358;11.256;2022-07-03T11:40:44;28.20;90.80
25012;DHT22;13027;49.358;11.256;2022-07-03T11:43:16;28.10;91.10
25012;DHT22;13027;49.358;11.256;2022-07-03T11:45:42;28.20;91.80
25012;DHT22;13027;49.358;11.256;2022-07-03T11:48:17;28.40;91.20
25012;DHT22;13027;49.358;11.256;2022-07-03T11:50:46;28.70;89.50
25012;DHT22;13027;49.358;11.256;2022-07-03T11:53:16;28.60;84.60
25012;DHT22;13027;49.358;11.256;2022-07-03T11:55:55;28.60;87.60
25012;DHT22;13027;49.358;11.256;2022-07-03T11:58:24;28.70;87.50
25012;DHT22;13027;49.358;11.256;2022-07-03T12:01:02;28.70;88.90
25012;DHT22;13027;49.358;11.256;2022-07-03T12:07:22;28.80;89.60
25012;DHT22;13027;49.358;11.256;2022-07-03T12:10:14;28.10;88.60
25012;DHT22;13027;49.358;11.256;2022-07-03T12:15:25;29.00;87.90
25012;DHT22;13027;49.358;11.256;2022-07-03T12:17:51;28.90;85.00
25012;DHT22;13027;49.358;11.256;2022-07-03T12:20:23;28.60;85.30
25012;DHT22;13027;49.358;11.256;2022-07-03T12:23:22;28.70;85.10
25012;DHT22;13027;49.358;11.256;2022-07-03T12:25:52;28.70;84.60
25012;DHT22;13027;49.358;11.256;2022-07-03T12:28:24;28.80;85.30
25012;DHT22;13027;49.358;11.256;2022-07-03T12:33:25;28.80;83.20
25012;DHT22;13027;49.358;11.256;2022-07-03T12:38:29;28.60;84.10
25012;DHT22;13027;49.358;11.256;2022-07-03T12:43:59;28.70;83.90
25012;DHT22;13027;49.358;11.256;2022-07-03T12:49:15;28.70;81.40
25012;DHT22;13027;49.358;11.256;2022-07-03T12:51:44;28.90;83.00
25012;DHT22;13027;49.358;11.256;2022-07-03T12:54:33;28.60;82.90
25012;DHT22;13027;49.358;11.256;2022-07-03T12:57:14;29.10;83.20
25012;DHT22;13027;49.358;11.256;2022-07-03T13:02:49;28.80;81.40
25012;DHT22;13027;49.358;11.256;2022-07-03T13:07:44;29.30;82.50
25012;DHT22;13027;49.358;11.256;2022-07-03T13:10:10;29.20;80.50
25012;DHT22;13027;49.358;11.256;2022-07-03T13:15:49;29.30;82.20
25012;DHT22;13027;49.358;11.256;2022-07-03T13:18:24;29.50;82.00
25012;DHT22;13027;49.358;11.256;2022-07-03T13:20:57;29.20;80.50
25012;DHT22;13027;49.358;11.256;2022-07-03T13:23:25;29.40;79.80
25012;DHT22;13027;49.358;11.256;2022-07-03T13:25:51;29.40;79.50
25012;DHT22;13027;49.358;11.256;2022-07-03T13:28:38;29.40;81.40
25012;DHT22;13027;49.358;11.256;2022-07-03T13:31:16;29.20;79.60
25012;DHT22;13027;49.358;11.256;2022-07-03T13:34:06;29.40;79.60
25012;DHT22;13027;49.358;11.256;2022-07-03T13:36:32;29.40;81.10
25012;DHT22;13027;49.358;11.256;2022-07-03T13:39:01;29.60;82.20
25012;DHT22;13027;49.358;11.256;2022-07-03T13:41:27;29.70;80.40
25012;DHT22;13027;49.358;11.256;2022-07-03T13:43:53;29.60;79.40
25012;DHT22;13027;49.358;11.256;2022-07-03T13:46:24;29.80;79.60
25012;DHT22;13027;49.358;11.256;2022-07-03T13:48:50;29.80;79.90
25012;DHT22;13027;49.358;11.256;2022-07-03T13:51:18;29.90;79.40
25012;DHT22;13027;49.358;11.256;2022-07-03T13:53:51;29.60;79.70
25012;DHT22;13027;49.358;11.256;2022-07-03T13:56:17;29.60;80.10
25012;DHT22;13027;49.358;11.256;2022-07-03T13:58:49;29.40;81.00
25012;DHT22;13027;49.358;11.256;2022-07-03T14:01:18;29.70;82.30
25012;DHT22;13027;49.358;11.256;2022-07-03T14:03:45;29.90;81.60
25012;DHT22;13027;49.358;11.256;2022-07-03T14:06:11;29.50;80.40
25012;DHT22;13027;49.358;11.256;2022-07-03T14:08:39;29.50;81.80
25012;DHT22;13027;49.358;11.256;2022-07-03T14:11:05;29.70;82.30
25012;DHT22;13027;49.358;11.256;2022-07-03T14:13:33;29.60;83.40
25012;DHT22;13027;49.358;11.256;2022-07-03T14:16:02;29.60;81.10
25012;DHT22;13027;49.358;11.256;2022-07-03T14:18:27;29.60;81.50
25012;DHT22;13027;49.358;11.256;2022-07-03T14:20:53;29.70;80.20
25012;DHT22;13027;49.358;11.256;2022-07-03T14:23:18;29.70;81.00
25012;DHT22;13027;49.358;11.256;2022-07-03T14:25:47;29.70;79.60
25012;DHT22;13027;49.358;11.256;2022-07-03T14:28:13;29.80;81.00
25012;DHT22;13027;49.358;11.256;2022-07-03T14:30:57;30.10;82.00
25012;DHT22;13027;49.358;11.256;2022-07-03T14:33:42;30.10;82.40
25012;DHT22;13027;49.358;11.256;2022-07-03T14:36:07;30.00;82.20
25012;DHT22;13027;49.358;11.256;2022-07-03T14:38:33;30.10;83.90
25012;DHT22;13027;49.358;11.256;2022-07-03T14:40:59;30.10;84.00
25012;DHT22;13027;49.358;11.256;2022-07-03T14:43:24;30.20;83.30
25012;DHT22;13027;49.358;11.256;2022-07-03T14:45:50;30.20;81.50
25012;DHT22;13027;49.358;11.256;2022-07-03T14:48:18;30.10;81.90
25012;DHT22;13027;49.358;11.256;2022-07-03T14:50:44;30.00;83.80
25012;DHT22;13027;49.358;11.256;2022-07-03T14:53:10;30.00;83.90
25012;DHT22;13027;49.358;11.256;2022-07-03T14:55:37;30.00;84.60
25012;DHT22;13027;49.358;11.256;2022-07-03T15:00:33;29.90;86.60
25012;DHT22;13027;49.358;11.256;2022-07-03T15:05:43;29.80;83.70
25012;DHT22;13027;49.358;11.256;2022-07-03T15:10:45;29.80;84.00
25012;DHT22;13027;49.358;11.256;2022-07-03T15:13:11;29.60;84.10
25012;DHT22;13027;49.358;11.256;2022-07-03T15:15:38;29.70;84.20
25012;DHT22;13027;49.358;11.256;2022-07-03T15:18:05;29.80;81.90
25012;DHT22;13027;49.358;11.256;2022-07-03T15:20:37;29.70;81.70
25012;DHT22;13027;49.358;11.256;2022-07-03T15:23:08;29.70;83.20
25012;DHT22;13027;49.358;11.256;2022-07-03T15:25:41;29.80;81.60
25012;DHT22;13027;49.358;11.256;2022-07-03T15:28:29;30.50;81.80
25012;DHT22;13027;49.358;11.256;2022-07-03T15:30:55;29.90;82.90
25012;DHT22;13027;49.358;11.256;2022-07-03T15:33:27;30.00;80.90
25012;DHT22;13027;49.358;11.256;2022-07-03T15:36:13;30.10;81.70
25012;DHT22;13027;49.358;11.256;2022-07-03T15:41:28;30.20;83.10
25012;DHT22;13027;49.358;11.256;2022-07-03T15:44:11;30.40;82.90
25012;DHT22;13027;49.358;11.256;2022-07-03T15:49:31;30.20;82.90
25012;DHT22;13027;49.358;11.256;2022-07-03T16:00:24;30.00;83.20
25012;DHT22;13027;49.358;11.256;2022-07-03T16:05:40;30.10;84.10
25012;DHT22;13027;49.358;11.256;2022-07-03T16:08:09;30.10;82.80
25012;DHT22;13027;49.358;11.256;2022-07-03T16:11:05;30.00;83.10
25012;DHT22;13027;49.358;11.256;2022-07-03T16:13:34;29.80;83.60
25012;DHT22;13027;49.358;11.256;2022-07-03T16:16:09;29.60;83.00
25012;DHT22;13027;49.358;11.256;2022-07-03T16:18:55;29.60;81.70
25012;DHT22;13027;49.358;11.256;2022-07-03T16:21:20;29.60;82.10
25012;DHT22;13027;49.358;11.256;2022-07-03T16:23:48;29.70;82.80
25012;DHT22;13027;49.358;11.256;2022-07-03T16:26:16;29.30;82.80
25012;DHT22;13027;49.358;11.256;2022-07-03T16:28:42;29.60;81.20
25012;DHT22;13027;49.358;11.256;2022-07-03T16:31:08;29.50;79.60
25012;DHT22;13027;49.358;11.256;2022-07-03T16:33:35;29.60;82.10
25012;DHT22;13027;49.358;11.256;2022-07-03T16:36:08;29.70;81.00
25012;DHT22;13027;49.358;11.256;2022-07-03T16:39:07;29.70;81.60
25012;DHT22;13027;49.358;11.256;2022-07-03T16:41:27;29.70;81.90
25012;DHT22;13027;49.358;11.256;2022-07-03T16:44:02;29.70;82.70
25012;DHT22;13027;49.358;11.256;2022-07-03T16:46:28;29.70;82.80
25012;DHT22;13027;49.358;11.256;2022-07-03T16:51:45;29.60;82.40
25012;DHT22;13027;49.358;11.256;2022-07-03T16:54:35;30.00;83.00
25012;DHT22;13027;49.358;11.256;2022-07-03T16:57:03;29.50;83.10
25012;DHT22;13027;49.358;11.256;2022-07-03T16:59:31;29.40;82.70
25012;DHT22;13027;49.358;11.256;2022-07-03T17:02:00;29.40;83.40
25012;DHT22;13027;49.358;11.256;2022-07-03T17:04:28;29.30;85.80
25012;DHT22;13027;49.358;11.256;2022-07-03T17:06:54;29.10;85.40
25012;DHT22;13027;49.358;11.256;2022-07-03T17:09:20;29.00;85.90
25012;DHT22;13027;49.358;11.256;2022-07-03T17:11:46;28.90;85.50
25012;DHT22;13027;49.358;11.256;2022-07-03T17:14:12;28.80;84.40
25012;DHT22;13027;49.358;11.256;2022-07-03T17:16:42;28.80;84.70
25012;DHT22;13027;49.358;11.256;2022-07-03T17:19:15;28.90;84.90
25012;DHT22;13027;49.358;11.256;2022-07-03T17:22:05;29.00;84.50
25012;DHT22;13027;49.358;11.256;2022-07-03T17:24:32;29.00;83.80
25012;DHT22;13027;49.358;11.256;2022-07-03T17:27:04;29.00;85.00
25012;DHT22;13027;49.358;11.256;2022-07-03T17:30:00;29.00;84.90
25012;DHT22;13027;49.358;11.256;2022-07-03T17:32:31;28.80;85.20
25012;DHT22;13027;49.358;11.256;2022-07-03T17:35:25;28.80;85.60
25012;DHT22;13027;49.358;11.256;2022-07-03T17:37:51;28.80;85.40
25012;DHT22;13027;49.358;11.256;2022-07-03T17:40:19;28.90;85.30
25012;DHT22;13027;49.358;11.256;2022-07-03T17:42:44;29.30;84.80
25012;DHT22;13027;49.358;11.256;2022-07-03T17:45:11;28.90;85.60
25012;DHT22;13027;49.358;11.256;2022-07-03T17:47:52;28.80;86.00
25012;DHT22;13027;49.358;11.256;2022-07-03T17:50:38;28.70;86.10
25012;DHT22;13027;49.358;11.256;2022-07-03T17:53:21;28.70;86.90
25012;DHT22;13027;49.358;11.256;2022-07-03T17:55:56;28.60;87.10
25012;DHT22;13027;49.358;11.256;2022-07-03T17:58:28;28.40;87.40
25012;DHT22;13027;49.358;11.256;2022-07-03T18:00:58;28.50;87.50
25012;DHT22;13027;49.358;11.256;2022-07-03T18:03:27;28.00;87.50
25012;DHT22;13027;49.358;11.256;2022-07-03T18:05:58;28.40;87.70
25012;DHT22;13027;49.358;11.256;2022-07-03T18:16:43;28.30;86.80
25012;DHT22;13027;49.358;11.256;2022-07-03T18:19:18;28.90;88.30
25012;DHT22;13027;49.358;11.256;2022-07-03T18:22:06;28.10;87.90
25012;DHT22;13027;49.358;11.256;2022-07-03T18:24:39;28.00;87.30
25012;DHT22;13027;49.358;11.256;2022-07-03T18:27:07;27.90;88.80
25012;DHT22;13027;49.358;11.256;2022-07-03T18:29:32;27.80;89.90
25012;DHT22;13027;49.358;11.256;2022-07-03T18:31:58;27.60;90.20